Time;durP1;ratioP1;P1;durP2;ratioP2;P2;SDS_P1;SDS_P2;PMS_P1;PMS_P2;Temp;Humidity;BMP_temperature;BMP_pressure;BME280_temperature;BME280_humidity;BME280_pressure;Samples;Min_cycle;Max_cycle;Signal;HPM_P1;HPM_P2
2022/09/04 00:00:46;;;;;;;4.40;1.77;;;18.00;67.20;;;;;;5025214;28;20029;-68
2022/09/04 00:03:27;;;;;;;3.20;1.90;;;18.00;67.40;;;;;;5032861;28;20034;-68
2022/09/04 00:05:57;;;;;;;3.30;1.90;;;18.00;67.50;;;;;;5015869;28;20026;-68
2022/09/04 00:09:01;;;;;;;2.92;1.98;;;17.90;67.70;;;;;;5019971;28;20126;-68
2022/09/04 00:11:44;;;;;;;4.78;2.03;;;17.90;67.80;;;;;;4976905;28;20049;-68
2022/09/04 00:14:24;;;;;;;2.50;1.70;;;17.90;68.00;;;;;;5012217;28;20037;-68
2022/09/04 00:16:57;;;;;;;3.28;1.83;;;17.80;68.10;;;;;;5012305;28;20022;-68
2022/09/04 00:19:52;;;;;;;3.38;2.00;;;17.80;68.40;;;;;;5011778;28;20034;-67
2022/09/04 00:22:24;;;;;;;4.47;1.85;;;17.70;68.50;;;;;;5011783;28;20034;-68
2022/09/04 00:25:13;;;;;;;3.88;1.73;;;17.70;68.80;;;;;;5020265;28;20037;-68
2022/09/04 00:27:45;;;;;;;3.53;2.05;;;17.70;69.00;;;;;;5017214;28;20041;-68
2022/09/04 00:30:21;;;;;;;2.55;1.50;;;17.70;69.10;;;;;;5031328;28;20040;-67
2022/09/04 00:33:05;;;;;;;4.50;1.90;;;17.60;69.20;;;;;;5016831;28;20448;-68
2022/09/04 00:35:37;;;;;;;3.35;1.65;;;17.60;69.40;;;;;;5011596;28;20029;-68
2022/09/04 00:38:09;;;;;;;2.40;1.45;;;17.60;69.80;;;;;;5018376;28;20037;-68
2022/09/04 00:40:43;;;;;;;4.60;2.50;;;17.50;70.00;;;;;;5022849;28;20461;-68
2022/09/04 00:43:20;;;;;;;3.53;1.80;;;17.50;70.20;;;;;;5042572;28;20040;-68
2022/09/04 00:46:04;;;;;;;3.40;1.92;;;17.50;70.20;;;;;;5019403;28;20024;-69
2022/09/04 00:48:36;;;;;;;5.78;1.80;;;17.40;70.30;;;;;;5010273;28;20037;-68
2022/09/04 00:51:01;;;;;;;5.40;1.95;;;17.40;70.60;;;;;;5012574;28;20436;-68
2022/09/04 00:53:37;;;;;;;2.70;1.75;;;17.40;70.60;;;;;;5011019;28;20026;-68
2022/09/04 00:56:39;;;;;;;4.47;1.70;;;17.30;70.60;;;;;;5011340;28;20033;-68
2022/09/04 00:59:29;;;;;;;3.58;1.50;;;17.30;70.70;;;;;;5030370;28;20140;-68
2022/09/04 01:02:28;;;;;;;3.35;1.80;;;17.30;70.90;;;;;;5021749;28;20505;-69
2022/09/04 01:05:12;;;;;;;4.68;2.22;;;17.30;71.00;;;;;;5010064;28;20372;-68
2022/09/04 01:07:52;;;;;;;3.42;1.45;;;17.30;71.20;;;;;;5034186;28;20022;-68
2022/09/04 01:10:39;;;;;;;2.85;1.70;;;17.20;71.10;;;;;;5019514;28;20394;-68
2022/09/04 01:13:26;;;;;;;2.28;1.48;;;17.20;71.30;;;;;;5034988;28;20021;-68
2022/09/04 01:16:00;;;;;;;4.25;1.38;;;17.20;71.40;;;;;;5015255;28;20374;-68
2022/09/04 01:18:44;;;;;;;3.67;1.90;;;17.10;71.50;;;;;;5015354;28;20045;-69
2022/09/04 01:21:18;;;;;;;3.58;1.65;;;17.10;71.50;;;;;;5015056;28;20440;-69
2022/09/04 01:24:16;;;;;;;2.10;1.38;;;17.10;71.60;;;;;;5016182;28;20477;-68
2022/09/04 01:27:08;;;;;;;3.53;1.60;;;17.10;71.60;;;;;;5018662;28;20475;-68
2022/09/04 01:30:04;;;;;;;2.58;1.70;;;17.10;71.80;;;;;;5022796;28;20041;-69
2022/09/04 01:33:08;;;;;;;2.53;1.60;;;17.10;71.90;;;;;;5028856;28;20523;-68
2022/09/04 01:35:54;;;;;;;3.88;1.85;;;17.10;72.50;;;;;;5019168;28;20489;-68
2022/09/04 01:38:35;;;;;;;2.67;1.60;;;17.10;72.10;;;;;;5016328;28;20033;-68
2022/09/04 01:41:21;;;;;;;2.47;1.60;;;17.10;72.30;;;;;;5023977;28;20026;-68
2022/09/04 01:43:48;;;;;;;4.40;1.50;;;17.10;72.10;;;;;;5014977;28;20420;-68
2022/09/04 01:46:57;;;;;;;5.03;1.95;;;17.10;72.30;;;;;;5031179;28;20087;-69
2022/09/04 01:49:33;;;;;;;3.30;1.88;;;17.10;72.30;;;;;;5034057;28;20493;-68
2022/09/04 01:52:43;;;;;;;5.82;2.00;;;17.00;72.20;;;;;;5024187;28;20041;-68
2022/09/04 01:55:36;;;;;;;3.38;1.50;;;17.00;72.50;;;;;;4937821;29;20518;-69
2022/09/04 01:58:09;;;;;;;3.58;1.77;;;17.00;72.30;;;;;;5030807;28;20084;-68
2022/09/04 02:00:57;;;;;;;2.60;1.58;;;17.00;72.40;;;;;;5025678;28;20473;-67
2022/09/04 02:03:31;;;;;;;4.32;1.58;;;17.00;72.50;;;;;;5030714;28;20083;-68
2022/09/04 02:06:20;;;;;;;3.08;1.70;;;17.00;72.50;;;;;;5033166;28;20482;-68
2022/09/04 02:09:09;;;;;;;2.25;1.40;;;17.00;72.40;;;;;;5014417;28;20440;-69
2022/09/04 02:11:37;;;;;;;2.95;2.10;;;17.00;72.40;;;;;;5025727;28;20480;-68
2022/09/04 02:14:31;;;;;;;2.67;1.40;;;16.90;72.40;;;;;;5014161;28;20033;-68
2022/09/04 02:17:24;;;;;;;2.60;1.40;;;16.90;72.50;;;;;;5001817;28;20025;-68
2022/09/04 02:20:02;;;;;;;1.92;1.38;;;16.90;72.50;;;;;;5033650;28;20272;-68
2022/09/04 02:22:57;;;;;;;2.10;1.50;;;16.90;72.50;;;;;;5032488;28;20029;-68
2022/09/04 02:25:45;;;;;;;2.40;1.50;;;16.80;72.40;;;;;;4999697;28;20461;-68
2022/09/04 02:28:32;;;;;;;4.45;1.83;;;16.80;72.50;;;;;;5030725;28;20042;-69
2022/09/04 02:30:58;;;;;;;2.08;1.38;;;16.80;72.90;;;;;;5013638;28;20033;-69
2022/09/04 02:33:57;;;;;;;3.22;1.25;;;16.80;72.80;;;;;;5026508;28;20034;-69
2022/09/04 02:36:52;;;;;;;2.17;1.63;;;16.80;72.80;;;;;;5004178;28;20129;-69
2022/09/04 02:39:35;;;;;;;3.08;1.63;;;16.70;72.90;;;;;;5033158;28;20044;-68
2022/09/04 02:42:18;;;;;;;3.13;1.45;;;16.70;72.90;;;;;;5024705;28;20492;-68
2022/09/04 02:45:34;;;;;;;4.32;1.42;;;16.70;73.00;;;;;;5020560;28;20041;-68
2022/09/04 02:48:28;;;;;;;1.70;1.20;;;16.70;73.00;;;;;;4937789;29;20484;-68
2022/09/04 02:51:12;;;;;;;2.55;1.60;;;16.70;73.00;;;;;;4936332;29;20530;-68
2022/09/04 02:53:51;;;;;;;2.80;1.50;;;16.70;73.70;;;;;;5009467;28;20054;-68
2022/09/04 02:56:42;;;;;;;2.30;1.50;;;16.60;73.10;;;;;;5019179;28;20045;-67
2022/09/04 02:59:29;;;;;;;2.50;1.67;;;16.60;73.40;;;;;;5031969;28;20079;-68
2022/09/04 03:02:01;;;;;;;3.53;1.50;;;16.60;73.40;;;;;;5029535;28;20037;-68
2022/09/04 03:04:37;;;;;;;2.97;1.40;;;16.60;73.40;;;;;;5013096;28;20034;-69
2022/09/04 03:07:16;;;;;;;2.72;1.65;;;16.60;73.40;;;;;;5018906;28;20030;-69
2022/09/04 03:09:54;;;;;;;1.65;1.20;;;16.60;73.60;;;;;;5012463;28;20512;-68
2022/09/04 03:12:26;;;;;;;2.58;1.60;;;16.60;73.70;;;;;;5022646;28;20033;-69
2022/09/04 03:15:17;;;;;;;2.25;1.40;;;16.50;73.50;;;;;;5015542;28;20029;-69
2022/09/04 03:18:04;;;;;;;3.15;1.40;;;16.50;73.40;;;;;;4975855;28;20057;-68
2022/09/04 03:20:41;;;;;;;1.92;1.40;;;16.50;73.50;;;;;;5012461;28;20030;-68
2022/09/04 03:23:17;;;;;;;2.25;1.35;;;16.50;73.50;;;;;;5019589;28;20034;-69
2022/09/04 03:26:05;;;;;;;2.25;1.58;;;16.50;73.60;;;;;;5012564;28;20048;-69
2022/09/04 03:28:52;;;;;;;3.60;1.45;;;16.50;73.60;;;;;;5027935;28;20054;-69
2022/09/04 03:31:28;;;;;;;2.15;1.38;;;16.50;73.70;;;;;;5018023;28;20034;-69
2022/09/04 03:34:27;;;;;;;2.67;1.60;;;16.50;73.70;;;;;;5026981;28;20033;-69
2022/09/04 03:37:04;;;;;;;2.88;1.23;;;16.50;73.80;;;;;;4996412;28;20037;-69
2022/09/04 03:39:40;;;;;;;5.95;1.67;;;16.40;73.90;;;;;;5012087;28;20039;-68
2022/09/04 03:42:08;;;;;;;3.47;1.45;;;16.40;74.00;;;;;;5018898;28;20060;-68
2022/09/04 03:45:01;;;;;;;2.33;1.40;;;16.40;74.00;;;;;;5031711;28;20124;-68
2022/09/04 03:48:13;;;;;;;2.63;1.40;;;16.40;73.90;;;;;;5022545;28;20112;-68
2022/09/04 03:50:39;;;;;;;1.90;1.30;;;16.30;73.90;;;;;;5023502;28;20049;-69
2022/09/04 03:53:26;;;;;;;4.65;1.52;;;16.30;74.00;;;;;;5019848;28;20025;-68
2022/09/04 03:56:49;;;;;;;3.60;1.40;;;16.30;74.20;;;;;;5012369;28;20030;-68
2022/09/04 03:59:27;;;;;;;2.10;1.50;;;16.30;74.10;;;;;;4959214;28;20586;-68
2022/09/04 04:02:15;;;;;;;3.67;1.40;;;16.20;74.30;;;;;;4958162;28;20027;-69
2022/09/04 04:05:22;;;;;;;2.88;1.40;;;16.20;74.30;;;;;;4993490;28;20044;-69
2022/09/04 04:08:14;;;;;;;2.75;1.45;;;16.20;74.30;;;;;;5023369;28;20040;-68
2022/09/04 04:11:11;;;;;;;3.08;1.60;;;16.10;74.50;;;;;;5013406;28;20034;-69
2022/09/04 04:13:48;;;;;;;2.55;1.77;;;16.10;74.40;;;;;;5032090;28;20044;-68
2022/09/04 04:16:39;;;;;;;4.10;1.48;;;16.10;74.40;;;;;;5025831;28;20500;-68
2022/09/04 04:19:32;;;;;;;1.63;1.30;;;16.10;74.40;;;;;;5011769;28;20460;-68
2022/09/04 04:22:29;;;;;;;1.75;1.40;;;16.00;74.50;;;;;;5014160;28;20044;-68
2022/09/04 04:25:25;;;;;;;2.05;1.40;;;16.00;74.50;;;;;;5014161;28;20037;-69
2022/09/04 04:27:57;;;;;;;;;;;16.00;74.50;;;;;;5031038;28;20029;-68
2022/09/04 04:30:23;;;;;;;3.72;1.33;;;15.90;74.20;;;;;;5001146;28;19925;-68
2022/09/04 04:33:21;;;;;;;2.00;1.40;;;15.80;74.60;;;;;;5002493;28;20038;-68
2022/09/04 04:35:59;;;;;;;2.17;1.42;;;15.80;74.80;;;;;;5025572;28;20040;-67
2022/09/04 04:38:53;;;;;;;2.88;1.50;;;15.80;74.90;;;;;;5030198;28;20103;-69
2022/09/04 04:42:03;;;;;;;2.42;1.52;;;15.70;75.20;;;;;;5027107;28;20033;-69
2022/09/04 04:47:33;;;;;;;2.53;1.70;;;15.70;75.30;;;;;;5025478;28;20044;-68
2022/09/04 04:50:14;;;;;;;2.72;1.30;;;15.70;75.50;;;;;;5011640;28;20485;-68
2022/09/04 04:53:01;;;;;;;2.50;1.45;;;15.60;75.50;;;;;;5021089;28;20171;-68
2022/09/04 04:56:04;;;;;;;2.60;1.35;;;15.60;75.50;;;;;;5012472;28;20056;-68
2022/09/04 04:58:56;;;;;;;2.90;1.48;;;15.60;75.60;;;;;;4999719;28;20047;-68
2022/09/04 05:01:42;;;;;;;4.20;1.65;;;15.60;75.70;;;;;;5006615;28;20505;-68
2022/09/04 05:04:22;;;;;;;2.38;1.60;;;15.60;75.90;;;;;;5002699;28;20034;-68
2022/09/04 05:07:02;;;;;;;2.08;1.50;;;15.60;75.90;;;;;;5028003;28;20057;-68
2022/09/04 05:09:51;;;;;;;1.67;1.27;;;15.50;76.00;;;;;;5031133;28;20033;-68
2022/09/04 05:12:42;;;;;;;3.08;1.63;;;15.50;75.90;;;;;;5017914;28;20029;-68
2022/09/04 05:15:26;;;;;;;2.20;1.40;;;15.50;76.00;;;;;;5010191;28;20022;-68
2022/09/04 05:17:57;;;;;;;3.30;1.30;;;15.50;76.00;;;;;;5029729;28;20033;-68
2022/09/04 05:20:49;;;;;;;1.58;1.30;;;15.50;76.00;;;;;;5027245;28;20119;-68
2022/09/04 05:23:36;;;;;;;2.47;1.40;;;15.50;76.30;;;;;;5024144;28;20030;-68
2022/09/04 05:26:20;;;;;;;2.63;1.52;;;15.50;76.30;;;;;;5011756;28;20041;-68
2022/09/04 05:29:33;;;;;;;2.63;1.45;;;15.40;76.40;;;;;;4993312;28;20045;-68
2022/09/04 05:32:20;;;;;;;2.38;1.20;;;15.50;76.30;;;;;;4974465;28;20046;-68
2022/09/04 05:35:06;;;;;;;3.03;1.77;;;15.50;76.80;;;;;;4969311;28;20027;-68
2022/09/04 05:37:47;;;;;;;1.95;1.35;;;15.50;76.70;;;;;;5008835;28;20053;-69
2022/09/04 05:40:31;;;;;;;3.13;1.83;;;15.50;76.50;;;;;;5020648;28;20051;-69
2022/09/04 05:43:25;;;;;;;2.27;1.33;;;15.50;76.70;;;;;;5018765;28;20030;-69
2022/09/04 05:46:08;;;;;;;2.17;1.30;;;15.60;76.70;;;;;;5018996;28;20032;-69
2022/09/04 05:48:58;;;;;;;2.83;1.45;;;15.50;76.90;;;;;;5023911;28;20034;-69
2022/09/04 05:51:50;;;;;;;1.70;1.33;;;15.60;77.20;;;;;;5016086;28;20416;-69
2022/09/04 05:54:24;;;;;;;2.58;1.42;;;15.60;77.10;;;;;;5014659;28;20030;-69
2022/09/04 05:56:57;;;;;;;2.10;1.25;;;15.60;77.20;;;;;;5016707;28;20021;-69
2022/09/04 05:59:44;;;;;;;3.08;1.40;;;15.70;77.30;;;;;;5021588;28;20040;-69
2022/09/04 06:02:39;;;;;;;3.55;1.75;;;15.70;77.20;;;;;;5032732;28;20020;-69
2022/09/04 06:05:31;;;;;;;4.30;1.50;;;15.70;77.70;;;;;;5033924;28;20095;-67
2022/09/04 06:08:08;;;;;;;3.45;1.75;;;15.70;77.70;;;;;;5019133;28;20026;-67
2022/09/04 06:10:43;;;;;;;2.95;1.52;;;15.70;77.50;;;;;;5013964;28;20117;-68
2022/09/04 06:13:36;;;;;;;2.58;1.50;;;15.80;77.70;;;;;;5014204;28;20033;-68
2022/09/04 06:16:20;;;;;;;2.67;1.63;;;15.80;77.60;;;;;;5014057;28;20034;-68
2022/09/04 06:19:11;;;;;;;4.15;1.45;;;15.80;77.50;;;;;;5033008;28;20045;-68
2022/09/04 06:21:59;;;;;;;2.22;1.50;;;15.80;77.60;;;;;;4977079;28;20088;-68
2022/09/04 06:24:46;;;;;;;3.42;1.75;;;15.90;77.60;;;;;;5031907;28;20405;-67
2022/09/04 06:27:45;;;;;;;5.78;1.85;;;16.00;78.00;;;;;;5031046;28;20024;-67
2022/09/04 06:30:13;;;;;;;2.75;1.48;;;16.00;77.70;;;;;;5030505;28;20128;-67
2022/09/04 06:33:05;;;;;;;4.28;1.55;;;16.00;78.20;;;;;;5024665;28;20026;-68
2022/09/04 06:35:40;;;;;;;4.03;1.67;;;16.10;77.60;;;;;;5024060;28;20037;-68
2022/09/04 06:38:13;;;;;;;3.95;1.88;;;16.20;77.60;;;;;;5019518;28;20075;-67
2022/09/04 06:40:57;;;;;;;2.42;1.77;;;16.20;77.60;;;;;;5023639;28;20034;-68
2022/09/04 06:44:03;;;;;;;2.75;1.75;;;16.20;77.70;;;;;;5016188;28;20395;-68
2022/09/04 06:46:50;;;;;;;2.40;1.73;;;16.20;77.60;;;;;;5028398;28;20064;-67
2022/09/04 06:49:25;;;;;;;4.60;1.80;;;16.30;77.80;;;;;;5025557;28;20384;-67
2022/09/04 06:52:24;;;;;;;3.33;1.60;;;16.30;77.90;;;;;;5030452;28;20116;-67
2022/09/04 06:55:27;;;;;;;2.60;1.48;;;16.40;78.00;;;;;;5031756;28;20440;-67
2022/09/04 06:58:12;;;;;;;4.45;1.85;;;16.40;77.80;;;;;;5023340;28;20099;-66
2022/09/04 07:00:59;;;;;;;4.13;2.15;;;16.40;78.10;;;;;;5021968;28;20523;-66
2022/09/04 07:03:49;;;;;;;2.33;1.60;;;16.40;78.90;;;;;;5015964;28;20042;-66
2022/09/04 07:06:25;;;;;;;4.20;1.77;;;16.50;78.70;;;;;;5032204;28;20476;-67
2022/09/04 07:08:59;;;;;;;2.85;1.77;;;16.50;78.60;;;;;;5027918;28;20201;-67
2022/09/04 07:11:55;;;;;;;3.35;2.20;;;16.60;78.70;;;;;;5015301;28;20509;-67
2022/09/04 07:14:39;;;;;;;3.65;1.85;;;16.70;78.60;;;;;;5028701;28;20362;-68
2022/09/04 07:17:20;;;;;;;3.50;2.10;;;16.70;78.70;;;;;;5023426;28;20376;-67
2022/09/04 07:20:26;;;;;;;3.28;2.00;;;16.80;78.90;;;;;;5031955;28;20045;-68
2022/09/04 07:23:17;;;;;;;4.22;2.17;;;16.80;78.60;;;;;;5028769;28;20469;-66
2022/09/04 07:25:59;;;;;;;6.47;2.38;;;16.90;78.70;;;;;;4998635;28;20113;-66
2022/09/04 07:28:49;;;;;;;4.28;2.15;;;16.90;78.80;;;;;;5025841;28;20523;-67
2022/09/04 07:31:15;;;;;;;3.60;2.20;;;17.00;79.20;;;;;;5012322;28;20564;-69
2022/09/04 07:33:49;;;;;;;4.40;2.05;;;17.00;79.40;;;;;;5012669;28;20473;-67
2022/09/04 07:36:41;;;;;;;4.65;2.40;;;17.10;79.70;;;;;;5023623;28;20025;-68
2022/09/04 07:39:32;;;;;;;3.63;2.00;;;17.20;79.30;;;;;;5013841;28;20481;-69
2022/09/04 07:42:04;;;;;;;3.08;1.95;;;17.30;79.50;;;;;;5004027;28;20040;-69
2022/09/04 07:44:45;;;;;;;4.93;2.42;;;17.40;79.70;;;;;;5013495;28;20457;-67
2022/09/04 07:47:20;;;;;;;3.95;2.40;;;17.40;79.50;;;;;;4996570;28;20041;-69
2022/09/04 07:50:07;;;;;;;5.05;2.95;;;17.50;79.60;;;;;;4998181;28;20034;-68
2022/09/04 07:52:52;;;;;;;4.65;2.70;;;17.50;79.50;;;;;;4999172;28;20055;-68
2022/09/04 07:55:45;;;;;;;5.72;2.17;;;17.60;79.60;;;;;;4996192;28;20121;-68
2022/09/04 07:58:32;;;;;;;4.05;2.30;;;17.60;79.60;;;;;;4996994;28;20133;-68
2022/09/04 08:01:29;;;;;;;3.88;2.72;;;17.70;80.20;;;;;;4998290;28;20022;-68
2022/09/04 08:04:31;;;;;;;4.97;2.60;;;17.80;79.90;;;;;;4996189;28;20025;-68
2022/09/04 08:07:04;;;;;;;5.20;2.60;;;17.90;79.90;;;;;;4984923;28;20045;-68
2022/09/04 08:09:51;;;;;;;3.42;2.60;;;18.00;79.80;;;;;;4998081;28;20028;-68
2022/09/04 08:12:48;;;;;;;5.82;2.90;;;18.10;79.70;;;;;;4996398;28;20231;-69
2022/09/04 08:15:20;;;;;;;4.05;2.55;;;18.20;79.70;;;;;;5024978;28;20481;-68
2022/09/04 08:18:02;;;;;;;4.13;2.83;;;18.20;79.60;;;;;;5027419;28;20037;-67
2022/09/04 08:20:54;;;;;;;3.70;2.47;;;18.30;79.60;;;;;;5025385;28;20032;-67
2022/09/04 08:23:41;;;;;;;5.47;2.70;;;18.30;79.50;;;;;;5023722;28;20037;-67
2022/09/04 08:26:28;;;;;;;5.20;2.47;;;18.40;79.80;;;;;;5025372;28;20030;-67
2022/09/04 08:29:06;;;;;;;4.47;2.83;;;18.50;80.30;;;;;;5016975;28;20136;-67
2022/09/04 08:31:52;;;;;;;3.38;2.80;;;18.60;79.70;;;;;;5008296;28;20366;-68
2022/09/04 08:34:24;;;;;;;5.65;2.60;;;18.70;79.70;;;;;;5012543;28;20116;-68
2022/09/04 08:37:33;;;;;;;4.88;2.30;;;18.80;79.60;;;;;;5016944;28;20035;-64
2022/09/04 08:40:24;;;;;;;4.25;2.63;;;18.90;80.20;;;;;;5006283;28;20061;-67
2022/09/04 08:43:21;;;;;;;3.13;2.20;;;18.90;79.30;;;;;;5022749;28;20046;-67
2022/09/04 08:46:10;;;;;;;5.40;2.72;;;19.10;79.40;;;;;;4995015;28;20029;-65
2022/09/04 08:49:22;;;;;;;5.28;2.90;;;19.10;79.20;;;;;;5011221;28;20380;-66
2022/09/04 08:52:25;;;;;;;5.50;2.60;;;19.20;79.00;;;;;;5001097;28;20041;-67
2022/09/04 08:55:28;;;;;;;3.58;2.60;;;19.30;79.00;;;;;;5029912;28;20222;-67
2022/09/04 08:58:13;;;;;;;5.10;2.72;;;19.40;79.10;;;;;;5023469;28;20053;-66
2022/09/04 09:00:55;;;;;;;5.13;2.60;;;19.50;79.20;;;;;;5020706;28;20548;-67
2022/09/04 09:03:56;;;;;;;4.25;2.65;;;19.60;78.80;;;;;;5009452;28;20029;-68
2022/09/04 09:06:53;;;;;;;4.10;2.42;;;19.60;78.10;;;;;;4949206;28;20027;-68
2022/09/04 09:09:57;;;;;;;4.32;2.40;;;19.70;78.10;;;;;;5010959;28;20045;-68
2022/09/04 09:13:08;;;;;;;6.13;3.38;;;19.80;78.50;;;;;;5019559;28;20037;-68
2022/09/04 09:15:53;;;;;;;4.97;2.65;;;19.80;77.90;;;;;;5017528;28;20026;-68
2022/09/04 09:18:36;;;;;;;4.68;2.50;;;19.90;78.00;;;;;;5026016;28;20041;-69
2022/09/04 09:21:33;;;;;;;3.13;2.00;;;20.10;77.40;;;;;;5016383;28;20061;-69
2022/09/04 09:23:58;;;;;;;3.42;2.45;;;20.20;77.20;;;;;;5007197;28;20037;-69
2022/09/04 09:26:32;;;;;;;3.35;2.40;;;20.30;77.40;;;;;;5024863;28;20025;-68
2022/09/04 09:29:30;;;;;;;3.10;2.15;;;20.30;77.20;;;;;;5037069;28;20520;-67
2022/09/04 09:32:11;;;;;;;3.30;2.35;;;20.40;76.90;;;;;;5022734;28;20032;-68
2022/09/04 09:35:07;;;;;;;4.22;2.42;;;20.50;76.90;;;;;;5021209;28;20473;-68
2022/09/04 09:37:33;;;;;;;4.82;2.60;;;20.60;76.20;;;;;;5025885;28;20037;-69
2022/09/04 09:40:31;;;;;;;2.80;2.10;;;20.70;76.40;;;;;;5013171;28;20029;-69
2022/09/04 09:43:19;;;;;;;4.30;2.30;;;20.80;75.90;;;;;;5032586;28;20030;-68
2022/09/04 09:46:09;;;;;;;3.38;2.40;;;20.90;76.00;;;;;;5013974;28;20022;-67
2022/09/04 09:49:01;;;;;;;3.88;2.33;;;21.00;75.80;;;;;;5032632;28;20021;-69
2022/09/04 09:52:01;;;;;;;4.15;2.35;;;21.10;75.70;;;;;;5016767;28;20041;-68
2022/09/04 09:54:48;;;;;;;4.50;2.50;;;21.20;74.80;;;;;;5015417;28;20029;-68
2022/09/04 09:57:38;;;;;;;5.05;2.10;;;21.20;74.00;;;;;;5026009;28;20472;-68
2022/09/04 10:00:18;;;;;;;3.65;2.20;;;21.30;73.80;;;;;;5028968;28;20068;-68
2022/09/04 10:03:29;;;;;;;2.80;2.10;;;21.40;73.80;;;;;;5023374;28;20037;-68
2022/09/04 10:06:13;;;;;;;2.72;2.25;;;21.50;73.90;;;;;;5024343;28;20057;-69
2022/09/04 10:09:06;;;;;;;3.95;2.10;;;21.50;73.60;;;;;;5032443;28;20030;-68
2022/09/04 10:12:00;;;;;;;4.85;2.92;;;21.60;73.10;;;;;;5031431;28;20037;-67
2022/09/04 10:14:52;;;;;;;4.75;2.00;;;21.70;72.10;;;;;;5023123;28;20058;-69
2022/09/04 10:17:39;;;;;;;4.45;2.35;;;21.80;71.60;;;;;;5001317;28;20038;-69
2022/09/04 10:20:54;;;;;;;3.47;2.00;;;21.90;71.40;;;;;;5028216;28;20037;-69
2022/09/04 10:23:29;;;;;;;2.83;1.87;;;22.00;71.30;;;;;;5022661;28;20065;-69
2022/09/04 10:26:14;;;;;;;2.80;2.00;;;22.00;70.80;;;;;;5028937;28;20061;-68
2022/09/04 10:29:09;;;;;;;4.07;2.45;;;22.10;71.00;;;;;;5029876;28;20180;-69
2022/09/04 10:31:56;;;;;;;3.47;2.53;;;22.10;70.60;;;;;;5029826;28;20060;-69
2022/09/04 10:34:35;;;;;;;4.43;2.40;;;22.20;70.30;;;;;;5028650;28;20041;-69
2022/09/04 10:37:01;;;;;;;3.38;2.00;;;22.30;69.90;;;;;;5024225;28;20026;-69
2022/09/04 10:43:14;;;;;;;3.13;2.30;;;22.40;69.90;;;;;;5031284;28;20389;-68
2022/09/04 10:46:09;;;;;;;4.97;2.00;;;22.50;70.90;;;;;;5035951;28;20078;-68
2022/09/04 10:48:38;;;;;;;;;;;22.60;70.70;;;;;;5023331;28;20452;-68
2022/09/04 10:51:28;;;;;;;4.70;2.08;;;22.70;70.70;;;;;;5029356;28;19974;-68
2022/09/04 10:54:16;;;;;;;3.83;2.78;;;22.60;70.00;;;;;;5017342;28;20059;-68
2022/09/04 10:56:57;;;;;;;4.10;2.17;;;22.70;69.90;;;;;;5032054;28;20040;-68
2022/09/04 10:59:57;;;;;;;4.22;2.40;;;22.70;69.20;;;;;;5032564;28;20069;-68
2022/09/04 11:02:23;;;;;;;6.40;2.30;;;22.80;68.80;;;;;;5000541;28;20045;-69
2022/09/04 11:05:02;;;;;;;3.10;2.22;;;22.90;68.20;;;;;;5032788;28;20025;-69
2022/09/04 11:07:34;;;;;;;3.83;2.45;;;22.90;68.30;;;;;;4987094;28;20040;-68
2022/09/04 11:10:18;;;;;;;3.83;2.30;;;23.00;68.70;;;;;;4984240;28;20033;-68
2022/09/04 11:12:51;;;;;;;5.05;2.08;;;23.00;68.00;;;;;;4983450;28;20033;-69
2022/09/04 11:15:32;;;;;;;5.00;2.33;;;23.10;67.60;;;;;;4985758;28;20033;-66
2022/09/04 11:18:07;;;;;;;2.47;1.90;;;23.10;67.80;;;;;;4984484;28;20322;-65
2022/09/04 11:20:59;;;;;;;3.70;2.13;;;23.20;67.30;;;;;;4982927;28;20572;-69
2022/09/04 11:24:13;;;;;;;4.95;2.67;;;23.30;66.80;;;;;;4987538;28;20042;-69
2022/09/04 11:27:06;;;;;;;4.97;2.40;;;23.30;66.80;;;;;;5014845;28;20041;-69
2022/09/04 11:29:58;;;;;;;3.80;2.15;;;23.40;67.00;;;;;;5023238;28;20041;-68
2022/09/04 11:32:50;;;;;;;3.25;2.22;;;23.50;67.40;;;;;;5028053;28;20041;-68
2022/09/04 11:35:54;;;;;;;3.53;2.17;;;23.60;66.50;;;;;;5013442;28;20088;-68
2022/09/04 11:38:27;;;;;;;3.20;1.92;;;23.60;66.60;;;;;;5026406;28;20040;-68
2022/09/04 11:41:27;;;;;;;4.77;2.90;;;23.70;66.20;;;;;;5029114;28;20206;-68
2022/09/04 11:44:09;;;;;;;3.72;2.08;;;23.70;67.00;;;;;;5028837;28;20428;-69
2022/09/04 11:47:10;;;;;;;3.90;2.17;;;23.80;66.00;;;;;;5025817;28;20042;-68
2022/09/04 11:49:52;;;;;;;3.30;2.22;;;23.80;65.20;;;;;;5024209;28;20057;-68
2022/09/04 11:52:25;;;;;;;3.70;2.00;;;23.90;65.40;;;;;;5027685;28;20052;-68
2022/09/04 11:54:58;;;;;;;3.42;2.40;;;23.90;64.80;;;;;;5030792;28;20029;-68
2022/09/04 11:57:33;;;;;;;3.25;2.25;;;23.90;64.60;;;;;;5026837;28;20048;-68
2022/09/04 12:00:11;;;;;;;3.25;2.38;;;23.90;64.00;;;;;;5012467;28;20042;-68
2022/09/04 12:03:28;;;;;;;5.75;2.42;;;23.90;64.00;;;;;;5001006;28;20037;-68
2022/09/04 12:06:08;;;;;;;3.25;2.40;;;23.90;64.20;;;;;;5023656;28;20033;-68
2022/09/04 12:08:51;;;;;;;3.67;2.63;;;23.90;64.40;;;;;;5024524;28;20021;-67
2022/09/04 12:11:55;;;;;;;5.63;2.78;;;24.00;64.80;;;;;;5008402;28;20042;-68
2022/09/04 12:14:39;;;;;;;2.67;2.03;;;24.00;65.30;;;;;;5015836;28;20079;-67
2022/09/04 12:17:24;;;;;;;5.63;2.33;;;24.10;64.90;;;;;;5027432;28;20029;-68
2022/09/04 12:20:32;;;;;;;3.28;2.65;;;24.20;64.50;;;;;;5022708;28;20049;-68
2022/09/04 12:23:18;;;;;;;4.10;2.58;;;24.20;64.40;;;;;;4989996;28;20030;-68
2022/09/04 12:25:46;;;;;;;3.83;2.35;;;24.30;63.70;;;;;;4990740;28;20111;-67
2022/09/04 12:28:39;;;;;;;3.05;2.35;;;24.30;63.60;;;;;;4986832;28;20294;-68
2022/09/04 12:31:08;;;;;;;3.80;2.28;;;24.30;63.50;;;;;;4973449;28;20034;-69
2022/09/04 12:34:08;;;;;;;4.30;2.42;;;24.40;63.20;;;;;;4988287;28;20032;-68
2022/09/04 12:36:58;;;;;;;2.70;2.10;;;24.40;63.10;;;;;;4975116;28;20037;-68
2022/09/04 12:39:51;;;;;;;6.93;2.58;;;24.40;63.40;;;;;;4990898;28;20049;-69
2022/09/04 12:42:19;;;;;;;4.53;2.25;;;24.40;63.50;;;;;;4989294;28;20467;-69
2022/09/04 12:45:06;;;;;;;2.80;2.03;;;24.40;62.80;;;;;;4988927;28;20132;-69
2022/09/04 12:47:40;;;;;;;3.63;2.30;;;24.40;62.50;;;;;;4988131;28;20630;-68
2022/09/04 12:50:46;;;;;;;3.47;1.97;;;24.40;62.50;;;;;;4990639;28;20119;-68
2022/09/04 12:53:17;;;;;;;3.17;2.35;;;24.40;62.60;;;;;;4990552;28;20586;-67
2022/09/04 12:55:47;;;;;;;3.65;2.20;;;24.50;63.00;;;;;;4999965;28;20464;-67
2022/09/04 12:58:34;;;;;;;2.47;1.98;;;24.50;62.70;;;;;;5028162;28;20455;-68
2022/09/04 13:01:30;;;;;;;2.50;1.80;;;24.60;62.50;;;;;;5027884;28;20092;-68
2022/09/04 13:04:21;;;;;;;3.10;2.20;;;24.70;61.60;;;;;;5022961;28;20477;-68
2022/09/04 13:07:16;;;;;;;3.47;2.00;;;24.70;60.80;;;;;;5004229;28;20582;-68
2022/09/04 13:10:16;;;;;;;3.78;2.40;;;24.70;61.00;;;;;;4992341;28;20493;-67
2022/09/04 13:13:00;;;;;;;4.65;2.42;;;24.80;60.80;;;;;;4992455;28;20042;-67
2022/09/04 13:16:01;;;;;;;4.07;2.05;;;24.80;60.10;;;;;;4978452;28;20033;-68
2022/09/04 13:18:57;;;;;;;4.78;2.03;;;24.80;60.10;;;;;;4991128;28;20393;-67
2022/09/04 13:21:45;;;;;;;5.10;2.10;;;24.90;59.70;;;;;;5022348;28;20064;-68
2022/09/04 13:24:26;;;;;;;2.47;1.80;;;24.90;59.90;;;;;;5015516;28;20040;-68
2022/09/04 13:27:14;;;;;;;2.83;2.13;;;24.90;59.40;;;;;;5022804;28;20029;-68
2022/09/04 13:30:10;;;;;;;3.25;2.30;;;25.00;59.00;;;;;;5022484;28;20501;-68
2022/09/04 13:33:20;;;;;;;2.78;1.88;;;25.00;58.10;;;;;;5024394;28;20029;-68
2022/09/04 13:36:03;;;;;;;3.17;2.10;;;25.10;58.20;;;;;;4971453;28;20054;-68
2022/09/04 13:39:05;;;;;;;2.92;2.13;;;25.00;57.70;;;;;;4950380;28;20085;-68
2022/09/04 13:41:50;;;;;;;3.00;1.98;;;24.90;57.90;;;;;;5024583;28;20163;-68
2022/09/04 13:44:39;;;;;;;4.00;2.13;;;24.90;57.20;;;;;;5032709;28;20094;-68
2022/09/04 13:47:19;;;;;;;2.67;2.05;;;25.00;57.80;;;;;;4999545;28;20087;-68
2022/09/04 13:50:09;;;;;;;2.30;1.98;;;25.00;58.00;;;;;;5004476;28;20128;-68
2022/09/04 13:52:50;;;;;;;3.35;2.30;;;25.10;58.40;;;;;;4977400;28;20469;-68
2022/09/04 13:55:22;;;;;;;4.68;2.40;;;25.10;58.20;;;;;;4992842;28;20041;-68
2022/09/04 13:57:56;;;;;;;3.58;2.17;;;25.10;58.00;;;;;;4991124;28;20041;-68
2022/09/04 14:00:23;;;;;;;3.47;2.35;;;25.20;58.30;;;;;;4991768;28;21401;-68
2022/09/04 14:02:55;;;;;;;2.65;2.05;;;25.20;57.60;;;;;;4989255;28;20095;-67
2022/09/04 14:05:24;;;;;;;4.35;1.92;;;25.30;57.20;;;;;;4991641;28;20313;-68
2022/09/04 14:08:02;;;;;;;4.20;2.20;;;25.20;57.10;;;;;;4978894;28;20091;-67
2022/09/04 14:10:54;;;;;;;3.90;2.40;;;25.20;56.90;;;;;;4993808;28;20036;-67
2022/09/04 14:13:21;;;;;;;2.65;2.00;;;25.30;56.70;;;;;;4991456;28;21598;-68
2022/09/04 14:16:08;;;;;;;3.28;2.15;;;25.40;56.70;;;;;;4992799;28;20030;-68
2022/09/04 14:18:55;;;;;;;2.92;2.00;;;25.50;56.60;;;;;;4992617;28;20041;-68
2022/09/04 14:21:32;;;;;;;3.17;2.20;;;25.50;56.20;;;;;;4991075;28;20032;-68
2022/09/04 14:24:02;;;;;;;4.50;2.72;;;25.70;56.40;;;;;;4992882;28;20045;-68
2022/09/04 14:26:49;;;;;;;2.95;1.90;;;25.70;56.00;;;;;;4991297;28;20039;-68
2022/09/04 14:29:24;;;;;;;3.10;1.95;;;25.60;56.30;;;;;;4991373;28;22924;-67
2022/09/04 14:32:09;;;;;;;4.90;2.28;;;25.70;56.30;;;;;;4990700;28;20410;-67